createdAt,value
2022-12-18T00:01:28.633Z,-7.70
2022-12-18T00:03:57.177Z,-7.70
2022-12-18T00:06:25.810Z,-7.70
2022-12-18T00:08:53.263Z,-7.70
2022-12-18T00:11:22.722Z,-7.70
2022-12-18T00:13:50.682Z,-7.60
2022-12-18T00:16:23.327Z,-7.70
2022-12-18T00:18:51.913Z,-7.70
2022-12-18T00:21:20.216Z,-7.70
2022-12-18T00:23:48.643Z,-7.70
2022-12-18T00:26:21.139Z,-7.80
2022-12-18T00:28:50.709Z,-7.80
2022-12-18T00:31:20.839Z,-7.90
2022-12-18T00:33:48.526Z,-8.00
2022-12-18T00:36:22.673Z,-8.10
2022-12-18T00:38:52.291Z,-8.10
2022-12-18T00:41:39.598Z,-8.20
2022-12-18T00:44:08.590Z,-8.30
2022-12-18T00:46:35.376Z,-8.30
2022-12-18T00:49:02.733Z,-8.30
2022-12-18T00:51:30.092Z,-8.30
2022-12-18T00:53:57.119Z,-8.30
2022-12-18T00:56:24.286Z,-8.30
2022-12-18T00:58:51.582Z,-8.20
2022-12-18T01:01:19.192Z,-8.10
2022-12-18T01:03:47.566Z,-8.00
2022-12-18T01:06:15.829Z,-7.90
2022-12-18T01:08:43.402Z,-7.80
2022-12-18T01:11:16.261Z,-7.70
2022-12-18T01:13:43.821Z,-7.70
2022-12-18T01:16:17.149Z,-7.70
2022-12-18T01:18:44.124Z,-7.70
2022-12-18T01:21:15.195Z,-7.60
2022-12-18T01:23:42.524Z,-7.60
2022-12-18T01:26:12.790Z,-7.60
2022-12-18T01:28:41.090Z,-7.60
2022-12-18T01:31:19.473Z,-7.60
2022-12-18T01:33:48.683Z,-7.60
2022-12-18T01:36:17.721Z,-7.60
2022-12-18T01:38:44.718Z,-7.60
2022-12-18T01:41:12.162Z,-7.50
2022-12-18T01:43:51.361Z,-7.50
2022-12-18T01:46:21.501Z,-7.50
2022-12-18T01:48:50.623Z,-7.50
2022-12-18T01:51:18.573Z,-7.40
2022-12-18T01:53:47.048Z,-7.40
2022-12-18T01:56:16.746Z,-7.40
2022-12-18T01:58:54.948Z,-7.40
2022-12-18T02:01:24.450Z,-7.30
2022-12-18T02:03:52.931Z,-7.30
2022-12-18T02:06:19.649Z,-7.30
2022-12-18T02:09:21.566Z,-7.30
2022-12-18T02:12:19.006Z,-7.40
2022-12-18T02:14:57.316Z,-7.40
2022-12-18T02:17:35.348Z,-7.40
2022-12-18T02:20:23.885Z,-7.30
2022-12-18T02:23:33.244Z,-7.30
2022-12-18T02:26:08.686Z,-7.30
2022-12-18T02:28:57.579Z,-7.40
2022-12-18T02:31:31.165Z,-7.40
2022-12-18T02:34:03.178Z,-7.40
2022-12-18T02:36:38.256Z,-7.30
2022-12-18T02:39:07.972Z,-7.30
2022-12-18T02:41:38.087Z,-7.20
2022-12-18T02:44:12.725Z,-7.20
2022-12-18T02:46:44.370Z,-7.10
2022-12-18T02:49:32.836Z,-7.10
2022-12-18T02:52:00.728Z,-7.10
2022-12-18T02:54:56.583Z,-7.00
2022-12-18T02:57:27.752Z,-7.00
2022-12-18T03:00:06.930Z,-7.00
2022-12-18T03:02:58.544Z,-7.00
2022-12-18T03:05:36.641Z,-6.90
2022-12-18T03:08:09.575Z,-6.90
2022-12-18T03:10:53.042Z,-6.90
2022-12-18T03:13:32.590Z,-6.90
2022-12-18T03:16:02.370Z,-6.90
2022-12-18T03:18:55.817Z,-6.90
2022-12-18T03:21:30.942Z,-6.90
2022-12-18T03:23:58.789Z,-6.80
2022-12-18T03:26:28.912Z,-6.80
2022-12-18T03:29:36.636Z,-6.70
2022-12-18T03:32:16.851Z,-6.70
2022-12-18T03:34:47.782Z,-6.70
2022-12-18T03:37:16.625Z,-6.70
2022-12-18T03:39:43.600Z,-6.70
2022-12-18T03:42:25.605Z,-6.60
2022-12-18T03:45:09.007Z,-6.60
2022-12-18T03:47:46.719Z,-6.60
2022-12-18T03:50:27.442Z,-6.60
2022-12-18T03:53:00.518Z,-6.50
2022-12-18T03:55:34.391Z,-6.40
2022-12-18T03:58:07.320Z,-6.40
2022-12-18T04:00:50.784Z,-6.30
2022-12-18T04:03:25.326Z,-6.30
2022-12-18T04:05:54.572Z,-6.30
2022-12-18T04:08:23.335Z,-6.30
2022-12-18T04:11:01.590Z,-6.30
2022-12-18T04:13:36.696Z,-6.20
2022-12-18T04:16:07.524Z,-6.30
2022-12-18T04:18:35.312Z,-6.30
2022-12-18T04:21:03.470Z,-6.30
2022-12-18T04:23:30.416Z,-6.30
2022-12-18T04:25:59.373Z,-6.30
2022-12-18T04:28:44.872Z,-6.30
2022-12-18T04:31:12.922Z,-6.30
2022-12-18T04:33:40.697Z,-6.30
2022-12-18T04:36:08.961Z,-6.30
2022-12-18T04:38:35.824Z,-6.30
2022-12-18T04:41:08.009Z,-6.40
2022-12-18T04:43:37.054Z,-6.40
2022-12-18T04:46:08.628Z,-6.40
2022-12-18T04:48:36.263Z,-6.40
2022-12-18T04:51:03.719Z,-6.40
2022-12-18T04:53:31.034Z,-6.40
2022-12-18T04:56:04.705Z,-6.30
2022-12-18T04:58:31.625Z,-6.30
2022-12-18T05:00:58.466Z,-6.30
2022-12-18T05:03:25.240Z,-6.30
2022-12-18T05:05:52.418Z,-6.40
2022-12-18T05:08:19.566Z,-6.40
2022-12-18T05:10:46.841Z,-6.40
2022-12-18T05:13:13.606Z,-6.40
2022-12-18T05:15:40.705Z,-6.40
2022-12-18T05:18:07.814Z,-6.30
2022-12-18T05:20:34.635Z,-6.30
2022-12-18T05:23:01.405Z,-6.30
2022-12-18T05:25:28.257Z,-6.30
2022-12-18T05:27:55.193Z,-6.30
2022-12-18T05:30:22.045Z,-6.30
2022-12-18T05:32:48.798Z,-6.30
2022-12-18T05:35:15.675Z,-6.30
2022-12-18T05:37:43.370Z,-6.30
2022-12-18T05:40:11.129Z,-6.30
2022-12-18T05:42:39.240Z,-6.30
2022-12-18T05:45:06.705Z,-6.30
2022-12-18T05:47:33.778Z,-6.30
2022-12-18T05:50:00.541Z,-6.20
2022-12-18T05:52:27.835Z,-6.20
2022-12-18T05:54:54.592Z,-6.20
2022-12-18T05:57:21.541Z,-6.20
2022-12-18T05:59:48.267Z,-6.20
2022-12-18T06:02:15.266Z,-6.20
2022-12-18T06:04:42.218Z,-6.20
2022-12-18T06:07:09.426Z,-6.20
2022-12-18T06:09:36.193Z,-6.10
2022-12-18T06:12:02.943Z,-6.10
2022-12-18T06:14:29.865Z,-6.10
2022-12-18T06:16:56.684Z,-6.10
2022-12-18T06:19:23.687Z,-6.10
2022-12-18T06:21:51.208Z,-6.00
2022-12-18T06:24:18.179Z,-6.00
2022-12-18T06:26:44.959Z,-6.10
2022-12-18T06:29:11.921Z,-6.10
2022-12-18T06:31:39.051Z,-6.00
2022-12-18T06:34:06.080Z,-6.00
2022-12-18T06:36:33.230Z,-6.00
2022-12-18T06:39:00.116Z,-6.00
2022-12-18T06:41:27.484Z,-6.00
2022-12-18T06:43:59.355Z,-6.00
2022-12-18T06:46:27.486Z,-6.10
2022-12-18T06:48:54.227Z,-6.00
2022-12-18T06:51:23.119Z,-6.00
2022-12-18T06:53:49.998Z,-6.00
2022-12-18T06:56:17.287Z,-6.00
2022-12-18T06:58:44.604Z,-6.00
2022-12-18T07:01:12.864Z,-6.00
2022-12-18T07:03:41.902Z,-6.00
2022-12-18T07:06:16.072Z,-5.90
2022-12-18T07:08:42.948Z,-5.90
2022-12-18T07:11:09.772Z,-5.90
2022-12-18T07:13:36.656Z,-5.90
2022-12-18T07:16:18.402Z,-5.90
2022-12-18T07:18:49.622Z,-5.90
2022-12-18T07:21:19.880Z,-5.90
2022-12-18T07:23:48.972Z,-5.90
2022-12-18T07:26:18.884Z,-5.90
2022-12-18T07:28:45.744Z,-5.80
2022-12-18T07:31:15.717Z,-5.80
2022-12-18T07:33:44.345Z,-5.80
2022-12-18T07:36:12.465Z,-5.80
2022-12-18T07:38:39.249Z,-5.70
2022-12-18T07:41:12.309Z,-5.10
2022-12-18T07:43:40.651Z,-5.00
2022-12-18T07:46:10.280Z,-5.00
2022-12-18T07:48:37.214Z,-5.30
2022-12-18T07:51:06.400Z,-5.40
2022-12-18T07:53:34.919Z,-5.50
2022-12-18T07:58:55.128Z,-5.60
2022-12-18T08:01:22.163Z,-5.70
2022-12-18T08:03:49.007Z,-5.70
2022-12-18T08:06:17.998Z,-5.70
2022-12-18T08:08:44.798Z,-5.70
2022-12-18T08:11:11.589Z,-5.40
2022-12-18T08:13:38.697Z,-5.60
2022-12-18T08:16:07.972Z,-5.60
2022-12-18T08:18:38.617Z,-5.50
2022-12-18T08:21:13.362Z,-5.50
2022-12-18T08:23:43.072Z,-5.60
2022-12-18T08:26:11.211Z,-5.60
2022-12-18T08:28:38.005Z,-5.60
2022-12-18T08:31:05.154Z,-5.70
2022-12-18T08:33:32.443Z,-5.60
2022-12-18T08:36:00.549Z,-5.60
2022-12-18T08:38:27.475Z,-5.60
2022-12-18T08:41:01.639Z,-5.60
2022-12-18T08:43:47.070Z,-5.50
2022-12-18T08:46:17.258Z,-5.50
2022-12-18T08:48:45.062Z,-5.40
2022-12-18T08:51:12.052Z,-5.30
2022-12-18T08:53:39.517Z,-5.40
2022-12-18T08:56:07.242Z,-5.30
2022-12-18T08:58:34.025Z,-5.30
2022-12-18T09:01:06.845Z,-5.20
2022-12-18T09:03:34.000Z,-5.30
2022-12-18T09:06:00.894Z,-5.30
2022-12-18T09:08:28.326Z,-5.20
2022-12-18T09:10:56.111Z,-5.20
2022-12-18T09:13:23.444Z,-5.10
2022-12-18T09:15:52.782Z,-5.00
2022-12-18T09:18:22.414Z,-5.00
2022-12-18T09:20:49.258Z,-5.00
2022-12-18T09:23:16.012Z,-5.00
2022-12-18T09:25:42.916Z,-5.00
2022-12-18T09:28:17.794Z,-5.10
2022-12-18T09:30:53.590Z,-5.00
2022-12-18T09:33:20.643Z,-5.00
2022-12-18T09:35:47.848Z,-4.90
2022-12-18T09:38:17.213Z,-4.90
2022-12-18T09:40:45.347Z,-4.90
2022-12-18T09:43:20.766Z,-4.90
2022-12-18T09:45:56.068Z,-4.80
2022-12-18T09:48:35.328Z,-4.80
2022-12-18T09:51:11.914Z,-4.70
2022-12-18T09:53:42.152Z,-4.70
2022-12-18T09:56:17.421Z,-4.70
2022-12-18T09:59:03.680Z,-4.60
2022-12-18T10:01:41.578Z,-4.60
2022-12-18T10:04:11.569Z,-4.60
2022-12-18T10:06:53.597Z,-4.50
2022-12-18T10:09:26.425Z,-4.40
2022-12-18T10:12:11.836Z,-4.30
2022-12-18T10:15:02.597Z,-4.30
2022-12-18T10:17:36.182Z,-4.40
2022-12-18T10:20:14.612Z,-4.30
2022-12-18T10:22:50.737Z,-4.20
2022-12-18T10:25:20.500Z,-4.10
2022-12-18T10:27:47.788Z,-4.00
2022-12-18T10:30:16.817Z,-3.90
2022-12-18T10:32:43.841Z,-4.00
2022-12-18T10:35:28.836Z,-4.10
2022-12-18T10:38:13.625Z,-4.00
2022-12-18T10:41:03.391Z,-4.00
2022-12-18T10:43:32.563Z,-3.90
2022-12-18T10:46:06.373Z,-3.80
2022-12-18T10:48:40.605Z,-3.80
2022-12-18T10:51:13.316Z,-3.90
2022-12-18T10:53:43.576Z,-3.90
2022-12-18T10:56:10.658Z,-3.90
2022-12-18T10:58:39.704Z,-3.90
2022-12-18T11:01:16.610Z,-3.80
2022-12-18T11:03:46.647Z,-3.60
2022-12-18T11:06:19.110Z,-3.40
2022-12-18T11:08:59.978Z,-3.40
2022-12-18T11:11:26.758Z,-3.40
2022-12-18T11:14:04.538Z,-3.50
2022-12-18T11:16:57.896Z,-3.50
2022-12-18T11:19:34.483Z,-3.40
2022-12-18T11:22:04.566Z,-3.20
2022-12-18T11:24:35.645Z,-3.00
2022-12-18T11:27:06.932Z,-2.80
2022-12-18T11:29:44.816Z,-2.80
2022-12-18T11:32:16.294Z,-2.90
2022-12-18T11:34:48.209Z,-3.00
2022-12-18T11:37:16.752Z,-3.20
2022-12-18T11:39:50.924Z,-3.30
2022-12-18T11:42:44.428Z,-3.30
2022-12-18T11:45:14.133Z,-3.40
2022-12-18T11:48:04.788Z,-3.50
2022-12-18T11:53:04.210Z,-3.50
2022-12-18T11:55:55.082Z,-3.20
2022-12-18T11:58:40.353Z,-3.00
2022-12-18T12:01:07.349Z,-3.10
2022-12-18T12:03:52.247Z,-3.10
2022-12-18T12:06:35.270Z,-3.10
2022-12-18T12:09:07.915Z,-3.20
2022-12-18T12:11:48.844Z,-3.40
2022-12-18T12:14:40.481Z,-3.40
2022-12-18T12:17:52.132Z,-3.30
2022-12-18T12:20:36.034Z,-3.10
2022-12-18T12:23:15.809Z,-3.00
2022-12-18T12:25:52.826Z,-3.20
2022-12-18T12:28:44.286Z,-3.20
2022-12-18T12:31:26.427Z,-3.20
2022-12-18T12:34:08.920Z,-3.10
2022-12-18T12:37:02.949Z,-3.00
2022-12-18T12:39:37.620Z,-3.00
2022-12-18T12:42:35.305Z,-3.10
2022-12-18T12:45:04.374Z,-3.30
2022-12-18T12:47:41.776Z,-3.40
2022-12-18T12:50:16.509Z,-3.50
2022-12-18T12:52:54.414Z,-3.40
2022-12-18T12:55:26.084Z,-3.40
2022-12-18T12:58:21.377Z,-3.40
2022-12-18T13:01:34.355Z,-3.40
2022-12-18T13:04:19.997Z,-3.50
2022-12-18T13:06:49.189Z,-3.40
2022-12-18T13:09:16.720Z,-3.50
2022-12-18T13:12:05.324Z,-3.50
2022-12-18T13:14:42.130Z,-3.50
2022-12-18T13:17:21.827Z,-3.60
2022-12-18T13:20:04.953Z,-3.60
2022-12-18T13:22:39.336Z,-3.60
2022-12-18T13:25:39.038Z,-3.50
2022-12-18T13:28:10.809Z,-3.30
2022-12-18T13:31:03.826Z,-3.30
2022-12-18T13:33:30.552Z,-3.30
2022-12-18T13:36:03.567Z,-3.30
2022-12-18T13:38:33.601Z,-3.30
2022-12-18T13:41:01.148Z,-3.30
2022-12-18T13:43:40.751Z,-3.30
2022-12-18T13:46:26.666Z,-3.30
2022-12-18T13:48:58.690Z,-3.20
2022-12-18T13:51:27.176Z,-3.30
2022-12-18T13:54:12.103Z,-3.30
2022-12-18T13:56:45.292Z,-3.40
2022-12-18T13:59:16.633Z,-3.40
2022-12-18T14:01:51.732Z,-3.40
2022-12-18T14:04:30.644Z,-3.40
2022-12-18T14:07:03.833Z,-3.50
2022-12-18T14:09:36.931Z,-3.50
2022-12-18T14:12:23.321Z,-3.60
2022-12-18T14:14:53.145Z,-3.60
2022-12-18T14:17:23.963Z,-3.70
2022-12-18T14:19:52.417Z,-3.70
2022-12-18T14:22:32.951Z,-3.80
2022-12-18T14:25:14.831Z,-3.80
2022-12-18T14:28:07.827Z,-3.80
2022-12-18T14:30:43.817Z,-3.90
2022-12-18T14:33:21.284Z,-4.00
2022-12-18T14:36:04.857Z,-4.00
2022-12-18T14:38:33.096Z,-4.00
2022-12-18T14:41:17.572Z,-4.10
2022-12-18T14:43:47.159Z,-4.10
2022-12-18T14:46:37.336Z,-4.10
2022-12-18T14:49:26.202Z,-4.20
2022-12-18T14:52:28.027Z,-4.20
2022-12-18T14:54:55.012Z,-4.20
2022-12-18T14:57:29.635Z,-4.20
2022-12-18T15:00:16.042Z,-4.20
2022-12-18T15:02:43.877Z,-4.20
2022-12-18T15:05:13.879Z,-4.30
2022-12-18T15:08:00.971Z,-4.30
2022-12-18T15:10:31.240Z,-4.30
2022-12-18T15:12:58.021Z,-4.30
2022-12-18T15:15:34.148Z,-4.40
2022-12-18T15:18:02.833Z,-4.40
2022-12-18T15:20:33.832Z,-4.40
2022-12-18T15:23:00.814Z,-4.50
2022-12-18T15:25:37.553Z,-4.50
2022-12-18T15:28:15.846Z,-4.50
2022-12-18T15:31:18.659Z,-4.50
2022-12-18T15:33:53.785Z,-4.50
2022-12-18T15:36:26.540Z,-4.60
2022-12-18T15:38:56.152Z,-4.60
2022-12-18T15:41:33.631Z,-4.60
2022-12-18T15:44:02.017Z,-4.60
2022-12-18T15:46:28.852Z,-4.60
2022-12-18T15:49:01.730Z,-4.60
2022-12-18T15:51:37.283Z,-4.70
2022-12-18T15:54:17.136Z,-4.60
2022-12-18T15:57:02.860Z,-4.70
2022-12-18T15:59:29.685Z,-4.60
2022-12-18T16:01:57.679Z,-4.60
2022-12-18T16:04:25.702Z,-4.70
2022-12-18T16:07:14.482Z,-4.60
2022-12-18T16:09:42.872Z,-4.60
2022-12-18T16:12:22.151Z,-4.60
2022-12-18T16:14:49.137Z,-4.50
2022-12-18T16:17:16.596Z,-4.50
2022-12-18T16:19:43.412Z,-4.50
2022-12-18T16:22:24.719Z,-4.40
2022-12-18T16:24:53.833Z,-4.40
2022-12-18T16:27:21.422Z,-4.40
2022-12-18T16:29:48.474Z,-4.40
2022-12-18T16:32:19.579Z,-4.40
2022-12-18T16:34:47.139Z,-4.30
2022-12-18T16:37:15.982Z,-4.30
2022-12-18T16:39:43.977Z,-4.40
2022-12-18T16:42:18.322Z,-4.40
2022-12-18T16:44:45.673Z,-4.40
2022-12-18T16:47:15.270Z,-4.40
2022-12-18T16:49:45.822Z,-4.40
2022-12-18T16:52:13.926Z,-4.40
2022-12-18T16:54:40.805Z,-4.40
2022-12-18T16:57:07.710Z,-4.40
2022-12-18T16:59:35.773Z,-4.40
2022-12-18T17:02:03.312Z,-4.40
2022-12-18T17:04:30.274Z,-4.50
2022-12-18T17:07:00.265Z,-4.40
2022-12-18T17:09:27.105Z,-4.50
2022-12-18T17:11:54.701Z,-4.50
2022-12-18T17:14:23.960Z,-4.50
2022-12-18T17:17:19.221Z,-4.50
2022-12-18T17:19:39.651Z,-4.50
2022-12-18T17:22:08.135Z,-4.50
2022-12-18T17:24:35.770Z,-4.50
2022-12-18T17:27:03.966Z,-4.50
2022-12-18T17:29:30.969Z,-4.50
2022-12-18T17:32:00.160Z,-4.50
2022-12-18T17:34:30.523Z,-4.50
2022-12-18T17:36:58.001Z,-4.50
2022-12-18T17:39:24.863Z,-4.50
2022-12-18T17:41:51.810Z,-4.40
2022-12-18T17:44:18.765Z,-4.40
2022-12-18T17:46:46.650Z,-4.40
2022-12-18T17:49:13.980Z,-4.40
2022-12-18T17:51:43.406Z,-4.40
2022-12-18T17:54:11.212Z,-4.40
2022-12-18T17:56:39.158Z,-4.30
2022-12-18T17:59:07.041Z,-4.30
2022-12-18T18:01:36.361Z,-4.30
2022-12-18T18:04:05.783Z,-4.30
2022-12-18T18:06:32.748Z,-4.30
2022-12-18T18:09:01.659Z,-4.30
2022-12-18T18:11:47.178Z,-4.30
2022-12-18T18:14:18.236Z,-4.30
2022-12-18T18:16:49.407Z,-4.30
2022-12-18T18:19:18.668Z,-4.30
2022-12-18T18:21:47.608Z,-4.30
2022-12-18T18:24:17.576Z,-4.30
2022-12-18T18:26:46.442Z,-4.30
2022-12-18T18:29:19.247Z,-4.30
2022-12-18T18:31:46.366Z,-4.40
2022-12-18T18:34:25.137Z,-4.40
2022-12-18T18:36:52.278Z,-4.40
2022-12-18T18:39:19.799Z,-4.50
2022-12-18T18:41:48.263Z,-4.50
2022-12-18T18:44:16.313Z,-4.50
2022-12-18T18:46:43.615Z,-4.40
2022-12-18T18:49:10.637Z,-4.40
2022-12-18T18:51:37.433Z,-4.40
2022-12-18T18:54:04.517Z,-4.40
2022-12-18T18:56:56.529Z,-4.40
2022-12-18T18:59:19.260Z,-4.40
2022-12-18T19:01:50.558Z,-4.40
2022-12-18T19:04:17.466Z,-4.40
2022-12-18T19:06:47.650Z,-4.40
2022-12-18T19:09:15.589Z,-4.30
2022-12-18T19:12:01.031Z,-4.30
2022-12-18T19:14:27.900Z,-4.30
2022-12-18T19:16:54.758Z,-4.30
2022-12-18T19:19:22.508Z,-4.30
2022-12-18T19:21:50.058Z,-4.30
2022-12-18T19:24:16.861Z,-4.40
2022-12-18T19:26:43.850Z,-4.30
2022-12-18T19:29:14.586Z,-4.30
2022-12-18T19:31:41.656Z,-4.30
2022-12-18T19:34:09.586Z,-4.30
2022-12-18T19:36:38.444Z,-4.30
2022-12-18T19:39:11.710Z,-4.30
2022-12-18T19:41:41.088Z,-4.30
2022-12-18T19:44:10.488Z,-4.30
2022-12-18T19:46:40.682Z,-4.20
2022-12-18T19:49:10.901Z,-4.30
2022-12-18T19:51:38.977Z,-4.20
2022-12-18T19:54:05.907Z,-4.20
2022-12-18T19:56:35.069Z,-4.20
2022-12-18T19:59:04.304Z,-4.20
2022-12-18T20:01:32.261Z,-4.20
2022-12-18T20:04:01.070Z,-4.20
2022-12-18T20:06:52.039Z,-4.20
2022-12-18T20:09:19.694Z,-4.20
2022-12-18T20:11:47.699Z,-4.30
2022-12-18T20:14:16.874Z,-4.30
2022-12-18T20:16:51.074Z,-4.30
2022-12-18T20:19:19.292Z,-4.30
2022-12-18T20:21:46.895Z,-4.20
2022-12-18T20:24:16.571Z,-4.20
2022-12-18T20:26:43.676Z,-4.20
2022-12-18T20:29:10.807Z,-4.10
2022-12-18T20:31:37.693Z,-4.10
2022-12-18T20:34:06.086Z,-4.10
2022-12-18T20:36:36.280Z,-4.10
2022-12-18T20:39:06.489Z,-4.10
2022-12-18T20:41:38.399Z,-4.00
2022-12-18T20:44:15.036Z,-3.90
2022-12-18T20:46:52.372Z,-3.90
2022-12-18T20:49:19.653Z,-3.90
2022-12-18T20:51:49.229Z,-3.80
2022-12-18T20:54:16.263Z,-3.80
2022-12-18T20:56:43.366Z,-3.80
2022-12-18T20:59:11.391Z,-3.80
2022-12-18T21:01:39.101Z,-3.80
2022-12-18T21:04:09.747Z,-3.70
2022-12-18T21:06:36.989Z,-3.70
2022-12-18T21:09:04.145Z,-3.70
2022-12-18T21:11:54.004Z,-3.60
2022-12-18T21:14:23.833Z,-3.60
2022-12-18T21:16:51.197Z,-3.50
2022-12-18T21:19:26.061Z,-3.50
2022-12-18T21:21:54.591Z,-3.50
2022-12-18T21:24:22.131Z,-3.60
2022-12-18T21:26:49.525Z,-3.60
2022-12-18T21:29:20.313Z,-3.60
2022-12-18T21:31:47.873Z,-3.50
2022-12-18T21:34:22.349Z,-3.60
2022-12-18T21:36:49.627Z,-3.50
2022-12-18T21:39:17.391Z,-3.50
2022-12-18T21:42:03.904Z,-3.50
2022-12-18T21:44:31.590Z,-3.40
2022-12-18T21:47:21.963Z,-3.40
2022-12-18T21:49:53.607Z,-3.40
2022-12-18T21:52:26.254Z,-3.40
2022-12-18T21:55:10.280Z,-3.40
2022-12-18T21:57:39.205Z,-3.40
2022-12-18T22:00:07.845Z,-3.40
2022-12-18T22:02:40.666Z,-3.40
2022-12-18T22:05:08.090Z,-3.30
2022-12-18T22:07:34.901Z,-3.30
2022-12-18T22:10:02.039Z,-3.30
2022-12-18T22:12:43.121Z,-3.20
2022-12-18T22:15:12.741Z,-3.20
2022-12-18T22:17:45.447Z,-3.20
2022-12-18T22:20:12.274Z,-3.20
2022-12-18T22:22:39.027Z,-3.10
2022-12-18T22:25:06.394Z,-3.10
2022-12-18T22:27:33.191Z,-3.10
2022-12-18T22:30:05.771Z,-3.10
2022-12-18T22:32:36.950Z,-3.10
2022-12-18T22:35:09.428Z,-3.10
2022-12-18T22:37:37.369Z,-3.10
2022-12-18T22:40:05.540Z,-3.10
2022-12-18T22:42:33.252Z,-3.00
2022-12-18T22:45:00.369Z,-3.00
2022-12-18T22:47:30.119Z,-3.00
2022-12-18T22:49:58.248Z,-3.00
2022-12-18T22:52:25.532Z,-3.00
2022-12-18T22:54:53.127Z,-3.00
2022-12-18T22:57:21.638Z,-2.90
2022-12-18T22:59:49.242Z,-2.90
2022-12-18T23:02:17.712Z,-2.90
2022-12-18T23:07:12.567Z,-2.80
2022-12-18T23:09:39.943Z,-2.70
2022-12-18T23:12:07.252Z,-2.60
2022-12-18T23:14:34.051Z,-2.60
2022-12-18T23:17:01.311Z,-2.60
2022-12-18T23:19:28.129Z,-2.60
2022-12-18T23:21:57.147Z,-2.50
2022-12-18T23:24:26.239Z,-2.50
2022-12-18T23:26:53.106Z,-2.50
2022-12-18T23:29:20.527Z,-2.50
2022-12-18T23:31:47.406Z,-2.50
2022-12-18T23:34:15.042Z,-2.50
2022-12-18T23:36:46.392Z,-2.50
2022-12-18T23:39:22.600Z,-2.50
2022-12-18T23:41:57.309Z,-2.40
2022-12-18T23:44:24.209Z,-2.40
2022-12-18T23:46:51.101Z,-2.50
2022-12-18T23:49:17.929Z,-2.40
2022-12-18T23:51:44.674Z,-2.40
2022-12-18T23:54:11.514Z,-2.30
2022-12-18T23:56:38.413Z,-2.30
2022-12-18T23:59:05.259Z,-2.30
